createdAt,value
2018-07-14T00:01:51.301Z,68.05
2018-07-14T00:04:19.864Z,67.34
2018-07-14T00:06:48.141Z,67.06
2018-07-14T00:09:16.631Z,67.23
2018-07-14T00:11:44.998Z,67.51
2018-07-14T00:14:13.273Z,67.83
2018-07-14T00:16:41.654Z,66.92
2018-07-14T00:19:10.030Z,67.15
2018-07-14T00:21:38.521Z,68.07
2018-07-14T00:24:06.819Z,68.58
2018-07-14T00:26:35.109Z,67.88
2018-07-14T00:29:03.559Z,68.02
2018-07-14T00:31:31.923Z,67.31
2018-07-14T00:34:00.202Z,68.00
2018-07-14T00:36:28.573Z,66.92
2018-07-14T00:38:56.844Z,67.79
2018-07-14T00:41:25.134Z,67.45
2018-07-14T00:43:53.609Z,67.48
2018-07-14T00:46:22.093Z,68.00
2018-07-14T00:48:50.470Z,68.03
2018-07-14T00:51:18.941Z,67.68
2018-07-14T00:53:47.125Z,68.07
2018-07-14T00:56:15.494Z,68.23
2018-07-14T00:58:43.778Z,67.75
2018-07-14T01:01:12.055Z,68.14
2018-07-14T01:03:40.213Z,68.87
2018-07-14T01:06:08.601Z,68.76
2018-07-14T01:08:36.777Z,68.71
2018-07-14T01:11:05.257Z,68.11
2018-07-14T01:13:33.513Z,68.52
2018-07-14T01:16:01.475Z,68.45
2018-07-14T01:18:29.877Z,68.03
2018-07-14T01:20:58.144Z,67.34
2018-07-14T01:23:26.428Z,66.58
2018-07-14T01:25:54.901Z,65.71
2018-07-14T01:28:23.077Z,65.65
2018-07-14T01:30:51.552Z,65.64
2018-07-14T01:33:19.933Z,65.51
2018-07-14T01:35:48.309Z,65.27
2018-07-14T01:38:16.789Z,65.37
2018-07-14T01:40:45.086Z,65.47
2018-07-14T01:43:13.451Z,64.95
2018-07-14T01:45:41.832Z,65.22
2018-07-14T01:48:10.007Z,64.64
2018-07-14T01:50:38.381Z,65.36
2018-07-14T01:53:06.750Z,65.46
2018-07-14T01:55:35.040Z,65.05
2018-07-14T01:58:03.410Z,66.01
2018-07-14T02:00:31.782Z,65.90
2018-07-14T02:03:00.064Z,67.50
2018-07-14T02:05:28.332Z,67.20
2018-07-14T02:07:56.689Z,67.90
2018-07-14T02:10:24.988Z,68.12
2018-07-14T02:12:53.265Z,69.11
2018-07-14T02:15:21.545Z,68.94
2018-07-14T02:17:49.917Z,68.84
2018-07-14T02:20:18.197Z,69.24
2018-07-14T02:22:46.461Z,69.46
2018-07-14T02:25:14.637Z,68.65
2018-07-14T02:27:42.822Z,68.57
2018-07-14T02:30:11.198Z,68.68
2018-07-14T02:32:39.170Z,68.60
2018-07-14T02:35:07.534Z,68.75
2018-07-14T02:37:35.813Z,68.92
2018-07-14T02:40:04.300Z,68.80
2018-07-14T02:42:32.670Z,68.72
2018-07-14T02:45:00.950Z,68.38
2018-07-14T02:47:28.852Z,67.79
2018-07-14T02:49:57.196Z,67.84
2018-07-14T02:52:25.473Z,67.50
2018-07-14T02:54:53.353Z,67.62
2018-07-14T02:57:21.706Z,68.32
2018-07-14T02:59:50.033Z,68.08
2018-07-14T03:02:18.131Z,68.77
2018-07-14T03:04:46.350Z,68.77
2018-07-14T03:07:14.819Z,69.18
2018-07-14T03:09:42.976Z,68.75
2018-07-14T03:12:11.153Z,68.42
2018-07-14T03:14:39.438Z,68.68
2018-07-14T03:17:07.805Z,69.29
2018-07-14T03:19:36.285Z,67.65
2018-07-14T03:22:04.779Z,68.35
2018-07-14T03:24:33.050Z,67.19
2018-07-14T03:27:01.327Z,66.53
2018-07-14T03:29:29.593Z,67.21
2018-07-14T03:31:57.870Z,66.88
2018-07-14T03:34:26.341Z,66.77
2018-07-14T03:36:54.521Z,66.75
2018-07-14T03:39:22.806Z,66.56
2018-07-14T03:41:51.132Z,66.60
2018-07-14T03:44:19.459Z,66.61
2018-07-14T03:46:47.747Z,66.53
2018-07-14T03:49:16.112Z,67.01
2018-07-14T03:51:44.489Z,66.36
2018-07-14T03:54:12.852Z,67.35
2018-07-14T03:56:41.035Z,66.28
2018-07-14T03:59:09.418Z,65.41
2018-07-14T04:01:37.592Z,66.26
2018-07-14T04:04:05.867Z,65.78
2018-07-14T04:06:34.258Z,65.08
2018-07-14T04:09:02.843Z,64.21
2018-07-14T04:11:31.209Z,64.54
2018-07-14T04:13:59.582Z,65.15
2018-07-14T04:16:27.759Z,64.11
2018-07-14T04:18:56.026Z,63.58
2018-07-14T04:21:24.192Z,64.23
2018-07-14T04:23:52.477Z,64.16
2018-07-14T04:26:20.858Z,63.80
2018-07-14T04:28:49.226Z,64.19
2018-07-14T04:31:17.514Z,64.32
2018-07-14T04:33:45.674Z,63.55
2018-07-14T04:36:13.846Z,63.89
2018-07-14T04:38:42.127Z,63.66
2018-07-14T04:41:10.434Z,63.45
2018-07-14T04:43:38.786Z,63.51
2018-07-14T04:46:07.358Z,62.83
2018-07-14T04:48:35.642Z,62.26
2018-07-14T04:51:04.022Z,62.27
2018-07-14T04:53:32.291Z,62.67
2018-07-14T04:56:00.442Z,61.70
2018-07-14T04:58:28.842Z,61.44
2018-07-14T05:00:57.113Z,61.18
2018-07-14T05:03:25.392Z,61.31
2018-07-14T05:05:53.878Z,60.15
2018-07-14T05:08:22.245Z,61.43
2018-07-14T05:10:50.433Z,59.92
2018-07-14T05:13:18.711Z,60.02
2018-07-14T05:15:47.172Z,60.26
2018-07-14T05:18:15.349Z,59.90
2018-07-14T05:20:43.734Z,59.87
2018-07-14T05:23:11.798Z,59.19
2018-07-14T05:25:39.764Z,60.15
2018-07-14T05:28:08.054Z,60.00
2018-07-14T05:30:36.431Z,58.57
2018-07-14T05:33:04.702Z,58.73
2018-07-14T05:35:33.285Z,58.48
2018-07-14T05:38:01.561Z,59.42
2018-07-14T05:40:29.824Z,58.46
2018-07-14T05:42:58.111Z,58.72
2018-07-14T05:45:26.425Z,58.85
2018-07-14T05:47:54.866Z,58.36
2018-07-14T05:50:23.134Z,57.81
2018-07-14T05:52:51.522Z,57.37
2018-07-14T05:55:19.797Z,56.69
2018-07-14T05:57:48.101Z,57.74
2018-07-14T06:00:16.652Z,57.70
2018-07-14T06:02:44.926Z,56.84
2018-07-14T06:05:13.305Z,57.00
2018-07-14T06:07:41.728Z,56.08
2018-07-14T06:10:10.062Z,55.83
2018-07-14T06:12:38.441Z,54.63
2018-07-14T06:15:06.918Z,54.35
2018-07-14T06:17:35.488Z,54.78
2018-07-14T06:20:03.881Z,53.97
2018-07-14T06:22:32.349Z,54.21
2018-07-14T06:25:00.686Z,53.29
2018-07-14T06:27:29.114Z,52.70
2018-07-14T06:29:57.390Z,53.28
2018-07-14T06:32:25.762Z,52.75
2018-07-14T06:34:53.933Z,52.53
2018-07-14T06:37:22.315Z,51.93
2018-07-14T06:39:50.696Z,52.58
2018-07-14T06:42:18.651Z,53.12
2018-07-14T06:44:47.175Z,53.38
2018-07-14T06:47:15.528Z,52.69
2018-07-14T06:49:43.724Z,52.69
2018-07-14T06:52:12.169Z,53.34
2018-07-14T06:54:40.349Z,53.24
2018-07-14T06:57:08.390Z,52.23
2018-07-14T06:59:36.696Z,52.22
2018-07-14T07:02:04.962Z,53.28
2018-07-14T07:04:33.145Z,53.40
2018-07-14T07:07:01.430Z,51.25
2018-07-14T07:09:29.903Z,50.93
2018-07-14T07:11:58.081Z,49.61
2018-07-14T07:14:26.345Z,50.45
2018-07-14T07:16:54.725Z,49.99
2018-07-14T07:19:22.644Z,49.95
2018-07-14T07:21:50.969Z,49.98
2018-07-14T07:24:19.452Z,50.44
2018-07-14T07:26:47.717Z,51.33
2018-07-14T07:29:16.106Z,49.09
2018-07-14T07:31:44.387Z,49.37
2018-07-14T07:34:12.746Z,48.78
2018-07-14T07:36:41.138Z,47.77
2018-07-14T07:39:09.505Z,48.81
2018-07-14T07:41:37.881Z,48.07
2018-07-14T07:44:06.171Z,47.06
2018-07-14T07:46:34.442Z,47.49
2018-07-14T07:49:03.010Z,47.61
2018-07-14T07:51:31.440Z,47.18
2018-07-14T07:53:59.770Z,46.66
2018-07-14T07:56:28.081Z,46.80
2018-07-14T07:58:56.231Z,47.42
2018-07-14T08:01:24.706Z,47.71
2018-07-14T08:03:52.981Z,47.22
2018-07-14T08:06:20.889Z,47.06
2018-07-14T08:08:49.205Z,47.68
2018-07-14T08:11:17.397Z,47.04
2018-07-14T08:13:45.684Z,48.76
2018-07-14T08:16:14.046Z,46.88
2018-07-14T08:18:42.421Z,46.24
2018-07-14T08:21:10.498Z,46.65
2018-07-14T08:23:38.877Z,45.49
2018-07-14T08:26:07.158Z,46.11
2018-07-14T08:28:35.641Z,46.68
2018-07-14T08:31:04.004Z,45.72
2018-07-14T08:33:32.390Z,45.61
2018-07-14T08:36:00.665Z,45.86
2018-07-14T08:38:28.933Z,45.98
2018-07-14T08:40:57.423Z,45.57
2018-07-14T08:43:25.743Z,45.33
2018-07-14T08:45:54.078Z,45.69
2018-07-14T08:48:22.349Z,45.35
2018-07-14T08:50:50.630Z,44.80
2018-07-14T08:53:18.795Z,46.62
2018-07-14T08:55:46.961Z,45.63
2018-07-14T08:58:15.320Z,44.93
2018-07-14T09:00:43.613Z,44.50
2018-07-14T09:03:11.797Z,44.28
2018-07-14T09:05:40.921Z,44.30
2018-07-14T09:08:09.273Z,43.94
2018-07-14T09:10:37.648Z,44.79
2018-07-14T09:13:05.813Z,44.17
2018-07-14T09:15:34.096Z,44.54
2018-07-14T09:18:02.467Z,45.16
2018-07-14T09:20:30.852Z,45.19
2018-07-14T09:22:59.242Z,44.43
2018-07-14T09:25:27.507Z,46.77
2018-07-14T09:27:55.782Z,45.16
2018-07-14T09:30:24.362Z,45.34
2018-07-14T09:32:52.240Z,44.01
2018-07-14T09:35:20.702Z,45.62
2018-07-14T09:37:49.044Z,45.41
2018-07-14T09:40:17.349Z,43.89
2018-07-14T09:42:46.818Z,45.07
2018-07-14T09:45:15.246Z,44.89
2018-07-14T09:47:43.446Z,44.39
2018-07-14T09:50:11.900Z,48.09
2018-07-14T09:52:40.274Z,46.33
2018-07-14T09:55:08.664Z,48.29
2018-07-14T09:57:37.121Z,45.03
2018-07-14T10:00:09.293Z,45.53
2018-07-14T10:02:37.343Z,43.80
2018-07-14T10:05:05.654Z,44.47
2018-07-14T10:07:33.914Z,44.62
2018-07-14T10:10:02.202Z,43.89
2018-07-14T10:12:30.682Z,44.23
2018-07-14T10:14:58.892Z,44.69
2018-07-14T10:17:27.285Z,43.85
2018-07-14T10:19:55.485Z,43.69
2018-07-14T10:22:23.957Z,43.39
2018-07-14T10:24:52.157Z,44.02
2018-07-14T10:27:20.451Z,43.47
2018-07-14T10:29:48.710Z,43.95
2018-07-14T10:32:17.077Z,44.24
2018-07-14T10:34:45.462Z,44.11
2018-07-14T10:37:13.638Z,45.82
2018-07-14T10:39:42.110Z,45.33
2018-07-14T10:42:10.384Z,43.70
2018-07-14T10:44:38.657Z,43.29
2018-07-14T10:47:06.932Z,42.03
2018-07-14T10:49:35.322Z,43.40
2018-07-14T10:52:03.689Z,42.94
2018-07-14T10:54:32.079Z,43.24
2018-07-14T10:57:00.349Z,46.53
2018-07-14T10:59:28.626Z,42.23
2018-07-14T11:01:56.902Z,42.21
2018-07-14T11:04:24.790Z,41.06
2018-07-14T11:06:52.733Z,41.33
2018-07-14T11:09:20.646Z,42.10
2018-07-14T11:11:48.570Z,42.33
2018-07-14T11:14:16.464Z,41.73
2018-07-14T11:16:44.365Z,42.36
2018-07-14T11:19:12.447Z,41.11
2018-07-14T11:21:40.334Z,42.68
2018-07-14T11:24:08.235Z,43.03
2018-07-14T11:26:36.158Z,42.83
2018-07-14T11:29:04.106Z,41.07
2018-07-14T11:31:32.001Z,41.53
2018-07-14T11:34:00.277Z,42.20
2018-07-14T11:36:28.149Z,43.65
2018-07-14T11:38:56.081Z,41.82
2018-07-14T11:41:23.988Z,46.57
2018-07-14T11:43:51.882Z,43.95
2018-07-14T11:46:19.797Z,44.97
2018-07-14T11:48:47.703Z,44.53
2018-07-14T11:51:15.615Z,47.56
2018-07-14T11:53:43.512Z,46.92
2018-07-14T11:56:11.396Z,44.43
2018-07-14T11:58:39.306Z,46.86
2018-07-14T12:01:07.294Z,46.35
2018-07-14T12:03:35.213Z,43.80
2018-07-14T12:06:03.230Z,43.87
2018-07-14T12:08:31.164Z,46.04
2018-07-14T12:10:59.130Z,48.90
2018-07-14T12:13:27.093Z,45.83
2018-07-14T12:15:54.953Z,49.23
2018-07-14T12:18:22.895Z,47.68
2018-07-14T12:20:50.881Z,46.53
2018-07-14T12:23:18.815Z,45.64
2018-07-14T12:25:46.716Z,47.88
2018-07-14T12:28:14.603Z,49.43
2018-07-14T12:30:42.607Z,49.20
2018-07-14T12:33:10.428Z,47.12
2018-07-14T12:35:38.323Z,49.12
2018-07-14T12:38:06.281Z,45.03
2018-07-14T12:40:34.210Z,42.78
2018-07-14T12:43:02.098Z,45.65
2018-07-14T12:45:29.977Z,43.45
2018-07-14T12:47:57.894Z,47.56
2018-07-14T12:50:25.810Z,42.92
2018-07-14T12:52:53.745Z,42.07
2018-07-14T12:55:21.688Z,46.90
2018-07-14T12:57:49.777Z,48.56
2018-07-14T13:00:17.686Z,42.65
2018-07-14T13:02:45.597Z,42.61
2018-07-14T13:05:13.483Z,42.91
2018-07-14T13:07:41.471Z,45.00
2018-07-14T13:10:09.372Z,48.32
2018-07-14T13:12:37.274Z,43.97
2018-07-14T13:15:05.495Z,45.93
2018-07-14T13:17:33.486Z,47.80
2018-07-14T13:20:01.457Z,41.72
2018-07-14T13:22:29.385Z,46.53
2018-07-14T13:24:57.305Z,41.77
2018-07-14T13:27:25.247Z,43.00
2018-07-14T13:29:53.184Z,47.41
2018-07-14T13:32:21.648Z,44.33
2018-07-14T13:34:49.910Z,41.49
2018-07-14T13:37:18.282Z,40.39
2018-07-14T13:39:46.657Z,40.32
2018-07-14T13:42:14.823Z,42.18
2018-07-14T13:44:43.149Z,42.40
2018-07-14T13:47:11.494Z,44.78
2018-07-14T13:49:39.877Z,41.40
2018-07-14T13:52:08.405Z,44.87
2018-07-14T13:54:36.730Z,40.89
2018-07-14T13:57:05.106Z,47.76
2018-07-14T13:59:33.490Z,46.47
2018-07-14T14:02:01.855Z,44.37
2018-07-14T14:04:29.933Z,43.82
2018-07-14T14:06:58.310Z,40.97
2018-07-14T14:09:26.592Z,40.58
2018-07-14T14:11:54.758Z,40.54
2018-07-14T14:14:22.921Z,40.92
2018-07-14T14:16:51.196Z,46.44
2018-07-14T14:19:19.382Z,42.36
2018-07-14T14:21:47.758Z,40.34
2018-07-14T14:24:16.034Z,44.91
2018-07-14T14:26:44.541Z,43.19
2018-07-14T14:29:12.861Z,40.52
2018-07-14T14:31:41.149Z,38.72
2018-07-14T14:34:09.540Z,39.45
2018-07-14T14:36:38.018Z,40.89
2018-07-14T14:39:07.215Z,38.29
2018-07-14T14:41:35.602Z,38.83
2018-07-14T14:44:04.082Z,39.22
2018-07-14T14:46:32.566Z,40.37
2018-07-14T14:49:00.983Z,38.99
2018-07-14T14:51:28.878Z,39.47
2018-07-14T14:53:57.291Z,42.55
2018-07-14T14:56:25.562Z,42.35
2018-07-14T14:58:53.511Z,40.02
2018-07-14T15:01:21.906Z,40.57
2018-07-14T15:03:50.181Z,46.56
2018-07-14T15:06:18.450Z,38.75
2018-07-14T15:08:46.861Z,38.54
2018-07-14T15:11:15.426Z,37.40
2018-07-14T15:13:43.706Z,36.74
2018-07-14T15:16:12.074Z,39.74
2018-07-14T15:18:40.554Z,38.28
2018-07-14T15:21:08.826Z,39.45
2018-07-14T15:23:37.206Z,36.50
2018-07-14T15:26:05.689Z,37.63
2018-07-14T15:28:34.165Z,39.19
2018-07-14T15:31:02.401Z,45.94
2018-07-14T15:33:30.809Z,36.77
2018-07-14T15:35:58.981Z,40.70
2018-07-14T15:38:27.474Z,37.02
2018-07-14T15:40:55.741Z,37.97
2018-07-14T15:43:24.131Z,40.88
2018-07-14T15:45:52.392Z,37.24
2018-07-14T15:48:20.673Z,37.90
2018-07-14T15:50:49.046Z,45.75
2018-07-14T15:53:17.529Z,40.25
2018-07-14T15:55:45.903Z,37.89
2018-07-14T15:58:14.291Z,45.29
2018-07-14T16:00:42.667Z,44.26
2018-07-14T16:03:10.939Z,38.82
2018-07-14T16:05:39.421Z,41.14
2018-07-14T16:08:07.699Z,44.09
2018-07-14T16:10:36.068Z,42.12
2018-07-14T16:13:04.452Z,41.52
2018-07-14T16:15:32.822Z,38.73
2018-07-14T16:18:01.111Z,46.42
2018-07-14T16:20:30.398Z,41.01
2018-07-14T16:22:58.583Z,39.76
2018-07-14T16:25:26.857Z,47.55
2018-07-14T16:27:55.228Z,41.49
2018-07-14T16:30:23.501Z,45.40
2018-07-14T16:32:51.879Z,44.08
2018-07-14T16:35:20.376Z,40.19
2018-07-14T16:37:48.283Z,40.18
2018-07-14T16:40:16.604Z,43.09
2018-07-14T16:42:44.981Z,39.16
2018-07-14T16:45:13.162Z,47.60
2018-07-14T16:47:41.429Z,40.40
2018-07-14T16:50:09.721Z,40.07
2018-07-14T16:52:38.276Z,41.77
2018-07-14T16:55:06.878Z,40.32
2018-07-14T16:57:35.217Z,40.82
2018-07-14T17:00:03.630Z,47.85
2018-07-14T17:02:32.213Z,42.20
2018-07-14T17:05:00.588Z,44.19
2018-07-14T17:07:29.102Z,41.39
2018-07-14T17:09:57.343Z,39.20
2018-07-14T17:12:25.824Z,40.55
2018-07-14T17:14:54.002Z,40.88
2018-07-14T17:17:22.281Z,41.47
2018-07-14T17:19:50.549Z,40.67
2018-07-14T17:22:18.789Z,40.39
2018-07-14T17:24:47.101Z,41.64
2018-07-14T17:27:15.474Z,41.96
2018-07-14T17:29:43.962Z,41.50
2018-07-14T17:32:12.237Z,41.28
2018-07-14T17:34:40.513Z,41.77
2018-07-14T17:37:08.679Z,42.32
2018-07-14T17:39:36.954Z,40.95
2018-07-14T17:42:05.346Z,41.93
2018-07-14T17:44:33.718Z,40.75
2018-07-14T17:47:01.989Z,42.26
2018-07-14T17:49:30.269Z,43.03
2018-07-14T17:51:58.805Z,43.37
2018-07-14T17:54:27.009Z,43.19
2018-07-14T17:56:55.425Z,43.40
2018-07-14T17:59:23.876Z,43.94
2018-07-14T18:01:52.083Z,44.21
2018-07-14T18:04:20.532Z,43.67
2018-07-14T18:06:48.907Z,44.24
2018-07-14T18:09:17.086Z,44.50
2018-07-14T18:11:45.661Z,45.24
2018-07-14T18:14:14.045Z,44.36
2018-07-14T18:16:42.016Z,45.30
2018-07-14T18:19:10.177Z,44.39
2018-07-14T18:21:38.466Z,45.63
2018-07-14T18:24:06.384Z,45.44
2018-07-14T18:26:34.577Z,46.11
2018-07-14T18:29:03.081Z,46.20
2018-07-14T18:31:31.258Z,46.95
